createdAt,value
2022-12-27T00:01:32.530Z,59.89
2022-12-27T00:04:00.693Z,60.24
2022-12-27T00:06:28.438Z,59.48
2022-12-27T00:08:56.434Z,59.31
2022-12-27T00:11:26.155Z,58.89
2022-12-27T00:13:53.123Z,59.12
2022-12-27T00:16:21.526Z,58.38
2022-12-27T00:18:49.559Z,58.57
2022-12-27T00:21:17.475Z,58.52
2022-12-27T00:23:48.363Z,58.33
2022-12-27T00:26:27.536Z,58.05
2022-12-27T00:28:55.084Z,58.41
2022-12-27T00:31:23.303Z,58.89
2022-12-27T00:33:52.798Z,58.60
2022-12-27T00:36:22.420Z,58.92
2022-12-27T00:38:50.084Z,59.32
2022-12-27T00:41:17.670Z,59.54
2022-12-27T00:43:44.634Z,59.42
2022-12-27T00:46:12.131Z,58.83
2022-12-27T00:48:39.404Z,58.36
2022-12-27T00:51:11.948Z,58.86
2022-12-27T00:53:39.016Z,58.60
2022-12-27T00:56:17.704Z,60.21
2022-12-27T00:58:45.270Z,60.31
2022-12-27T01:01:19.556Z,61.08
2022-12-27T01:03:47.302Z,62.88
2022-12-27T01:06:17.183Z,63.28
2022-12-27T01:08:45.313Z,62.02
2022-12-27T01:11:13.344Z,62.30
2022-12-27T01:13:41.439Z,61.89
2022-12-27T01:16:11.278Z,61.56
2022-12-27T01:18:38.507Z,61.40
2022-12-27T01:21:07.676Z,61.81
2022-12-27T01:23:34.755Z,61.48
2022-12-27T01:26:02.904Z,61.42
2022-12-27T01:28:30.308Z,61.42
2022-12-27T01:30:57.110Z,61.31
2022-12-27T01:33:24.460Z,61.92
2022-12-27T01:35:51.271Z,62.31
2022-12-27T01:38:18.046Z,61.53
2022-12-27T01:40:45.109Z,62.24
2022-12-27T01:43:18.828Z,61.99
2022-12-27T01:45:47.349Z,61.95
2022-12-27T01:48:19.674Z,62.16
2022-12-27T01:50:53.645Z,61.47
2022-12-27T01:53:27.871Z,61.91
2022-12-27T01:55:59.458Z,63.89
2022-12-27T01:58:36.043Z,62.40
2022-12-27T02:01:05.484Z,63.05
2022-12-27T02:03:36.948Z,63.64
2022-12-27T02:06:06.613Z,63.21
2022-12-27T02:08:51.866Z,63.88
2022-12-27T02:11:43.531Z,64.37
2022-12-27T02:14:12.412Z,63.38
2022-12-27T02:16:39.442Z,64.36
2022-12-27T02:19:22.476Z,63.48
2022-12-27T02:22:10.969Z,63.00
2022-12-27T02:24:59.259Z,62.11
2022-12-27T02:27:46.126Z,61.58
2022-12-27T02:30:13.552Z,61.34
2022-12-27T02:32:51.215Z,61.19
2022-12-27T02:35:26.516Z,60.83
2022-12-27T02:38:04.635Z,61.12
2022-12-27T02:40:51.840Z,61.15
2022-12-27T02:43:39.156Z,60.92
2022-12-27T02:46:27.720Z,62.01
2022-12-27T02:49:15.122Z,63.01
2022-12-27T02:52:28.136Z,62.16
2022-12-27T02:55:01.014Z,61.43
2022-12-27T02:57:52.871Z,60.56
2022-12-27T03:00:42.338Z,60.85
2022-12-27T03:03:21.154Z,60.35
2022-12-27T03:06:36.398Z,60.30
2022-12-27T03:09:44.377Z,60.79
2022-12-27T03:13:03.381Z,61.53
2022-12-27T03:15:55.883Z,61.13
2022-12-27T03:18:49.292Z,61.00
2022-12-27T03:21:44.864Z,61.14
2022-12-27T03:24:31.896Z,61.30
2022-12-27T03:27:02.307Z,61.12
2022-12-27T03:29:49.360Z,60.73
2022-12-27T03:32:36.734Z,62.29
2022-12-27T03:35:18.541Z,60.93
2022-12-27T03:38:05.221Z,60.74
2022-12-27T03:40:39.020Z,60.67
2022-12-27T03:43:15.541Z,60.67
2022-12-27T03:46:03.861Z,60.98
2022-12-27T03:48:39.096Z,61.65
2022-12-27T03:51:07.598Z,62.31
2022-12-27T03:53:40.885Z,61.74
2022-12-27T03:56:09.338Z,61.24
2022-12-27T03:58:36.207Z,60.32
2022-12-27T04:01:03.233Z,59.98
2022-12-27T04:03:30.291Z,59.81
2022-12-27T04:05:57.130Z,60.06
2022-12-27T04:08:42.706Z,59.79
2022-12-27T04:11:28.228Z,59.80
2022-12-27T04:14:13.644Z,60.17
2022-12-27T04:16:59.191Z,59.77
2022-12-27T04:19:44.859Z,60.16
2022-12-27T04:22:30.790Z,61.41
2022-12-27T04:25:17.120Z,61.02
2022-12-27T04:28:02.727Z,60.73
2022-12-27T04:30:47.847Z,60.38
2022-12-27T04:33:33.721Z,60.44
2022-12-27T04:36:05.951Z,60.19
2022-12-27T04:38:33.568Z,60.43
2022-12-27T04:41:19.033Z,60.63
2022-12-27T04:44:05.227Z,59.70
2022-12-27T04:46:50.732Z,59.57
2022-12-27T04:49:44.465Z,59.83
2022-12-27T04:52:34.995Z,59.18
2022-12-27T04:55:11.450Z,59.28
2022-12-27T04:57:38.455Z,59.59
2022-12-27T05:00:24.420Z,61.08
2022-12-27T05:02:51.846Z,61.64
2022-12-27T05:05:19.130Z,61.57
2022-12-27T05:08:05.009Z,60.78
2022-12-27T05:10:50.364Z,61.55
2022-12-27T05:13:35.777Z,61.72
2022-12-27T05:16:02.601Z,62.37
2022-12-27T05:18:29.418Z,61.91
2022-12-27T05:21:01.199Z,61.35
2022-12-27T05:23:46.300Z,61.78
2022-12-27T05:26:22.675Z,62.37
2022-12-27T05:28:51.334Z,62.20
2022-12-27T05:31:19.886Z,62.15
2022-12-27T05:33:46.764Z,62.40
2022-12-27T05:36:13.741Z,61.75
2022-12-27T05:38:40.676Z,61.00
2022-12-27T05:41:07.505Z,61.29
2022-12-27T05:43:35.657Z,61.04
2022-12-27T05:46:10.962Z,60.92
2022-12-27T05:48:38.000Z,61.83
2022-12-27T05:51:13.701Z,62.26
2022-12-27T05:53:41.042Z,63.20
2022-12-27T05:56:08.972Z,63.24
2022-12-27T05:58:35.934Z,63.50
2022-12-27T06:01:09.279Z,63.60
2022-12-27T06:03:37.066Z,62.52
2022-12-27T06:06:05.235Z,62.99
2022-12-27T06:08:32.944Z,62.23
2022-12-27T06:11:12.011Z,62.59
2022-12-27T06:13:40.555Z,62.97
2022-12-27T06:16:08.561Z,64.32
2022-12-27T06:18:37.615Z,63.29
2022-12-27T06:21:09.992Z,64.31
2022-12-27T06:23:39.094Z,64.87
2022-12-27T06:26:07.578Z,64.38
2022-12-27T06:28:35.045Z,62.92
2022-12-27T06:31:02.811Z,63.27
2022-12-27T06:33:30.479Z,62.53
2022-12-27T06:35:57.760Z,61.88
2022-12-27T06:38:25.815Z,62.21
2022-12-27T06:40:52.655Z,62.12
2022-12-27T06:43:19.612Z,63.35
2022-12-27T06:45:55.948Z,62.58
2022-12-27T06:48:22.926Z,62.83
2022-12-27T06:50:49.673Z,63.11
2022-12-27T06:53:16.545Z,62.83
2022-12-27T06:55:43.411Z,62.19
2022-12-27T06:58:12.829Z,62.15
2022-12-27T07:00:40.851Z,61.59
2022-12-27T07:03:07.582Z,61.14
2022-12-27T07:05:38.304Z,61.09
2022-12-27T07:08:06.180Z,61.40
2022-12-27T07:10:32.899Z,60.99
2022-12-27T07:13:01.239Z,60.91
2022-12-27T07:15:28.069Z,61.43
2022-12-27T07:17:54.853Z,62.79
2022-12-27T07:20:21.860Z,63.62
2022-12-27T07:22:48.645Z,62.72
2022-12-27T07:25:15.682Z,62.25
2022-12-27T07:27:42.401Z,62.77
2022-12-27T07:30:09.841Z,61.84
2022-12-27T07:32:36.544Z,64.52
2022-12-27T07:35:03.565Z,63.39
2022-12-27T07:37:30.290Z,62.63
2022-12-27T07:39:56.971Z,62.25
2022-12-27T07:42:23.719Z,62.68
2022-12-27T07:44:50.400Z,62.66
2022-12-27T07:47:17.295Z,61.98
2022-12-27T07:49:44.135Z,61.70
2022-12-27T07:52:10.969Z,62.21
2022-12-27T07:54:37.701Z,61.83
2022-12-27T07:57:04.509Z,62.39
2022-12-27T07:59:31.205Z,60.51
2022-12-27T08:02:07.364Z,59.60
2022-12-27T08:04:38.702Z,58.53
2022-12-27T08:07:14.033Z,59.03
2022-12-27T08:09:43.170Z,59.08
2022-12-27T08:12:10.196Z,59.32
2022-12-27T08:14:37.468Z,58.39
2022-12-27T08:17:17.736Z,57.64
2022-12-27T08:19:44.721Z,56.34
2022-12-27T08:22:11.647Z,57.18
2022-12-27T08:24:40.894Z,57.28
2022-12-27T08:27:08.577Z,56.91
2022-12-27T08:29:35.824Z,57.41
2022-12-27T08:32:02.732Z,57.89
2022-12-27T08:34:29.539Z,56.67
2022-12-27T08:36:57.457Z,55.45
2022-12-27T08:39:24.589Z,55.03
2022-12-27T08:41:54.081Z,54.96
2022-12-27T08:44:21.282Z,55.07
2022-12-27T08:46:48.512Z,54.21
2022-12-27T08:49:15.395Z,53.33
2022-12-27T08:51:42.086Z,52.28
2022-12-27T08:54:09.527Z,50.48
2022-12-27T08:56:36.365Z,52.44
2022-12-27T08:59:03.474Z,52.13
2022-12-27T09:01:30.335Z,51.10
2022-12-27T09:03:57.170Z,49.67
2022-12-27T09:06:24.888Z,50.24
2022-12-27T09:08:52.677Z,49.86
2022-12-27T09:11:22.721Z,48.33
2022-12-27T09:13:49.639Z,48.82
2022-12-27T09:16:19.700Z,49.46
2022-12-27T09:18:50.348Z,49.14
2022-12-27T09:21:18.155Z,48.04
2022-12-27T09:23:45.344Z,47.96
2022-12-27T09:26:13.564Z,47.80
2022-12-27T09:28:41.080Z,47.11
2022-12-27T09:31:09.760Z,46.52
2022-12-27T09:33:37.849Z,45.82
2022-12-27T09:36:12.973Z,45.17
2022-12-27T09:38:40.899Z,44.99
2022-12-27T09:44:36.498Z,44.63
2022-12-27T09:47:10.491Z,44.03
2022-12-27T09:49:41.697Z,44.18
2022-12-27T09:52:22.665Z,43.15
2022-12-27T09:55:12.487Z,44.92
2022-12-27T09:57:43.046Z,45.44
2022-12-27T10:00:16.422Z,45.30
2022-12-27T10:02:46.678Z,45.44
2022-12-27T10:05:21.714Z,44.49
2022-12-27T10:08:19.604Z,43.81
2022-12-27T10:10:59.107Z,44.41
2022-12-27T10:13:57.767Z,43.71
2022-12-27T10:16:27.604Z,43.22
2022-12-27T10:19:17.161Z,44.42
2022-12-27T10:21:55.229Z,45.02
2022-12-27T10:24:37.736Z,43.85
2022-12-27T10:27:13.842Z,44.17
2022-12-27T10:29:41.608Z,43.97
2022-12-27T10:32:14.163Z,43.97
2022-12-27T10:34:41.130Z,44.17
2022-12-27T10:37:14.217Z,44.99
2022-12-27T10:39:42.436Z,44.08
2022-12-27T10:42:32.237Z,43.93
2022-12-27T10:45:26.692Z,44.46
2022-12-27T10:47:56.221Z,44.84
2022-12-27T10:50:28.596Z,44.69
2022-12-27T10:52:57.625Z,45.98
2022-12-27T10:55:37.498Z,43.49
2022-12-27T10:58:40.233Z,43.40
2022-12-27T11:01:15.648Z,43.81
2022-12-27T11:03:42.753Z,43.20
2022-12-27T11:06:25.094Z,42.93
2022-12-27T11:08:54.823Z,43.48
2022-12-27T11:11:26.955Z,45.24
2022-12-27T11:14:09.911Z,45.00
2022-12-27T11:16:37.475Z,44.71
2022-12-27T11:19:04.673Z,45.48
2022-12-27T11:21:39.184Z,45.35
2022-12-27T11:24:12.624Z,45.96
2022-12-27T11:27:03.012Z,45.59
2022-12-27T11:29:32.480Z,45.87
2022-12-27T11:32:07.388Z,45.83
2022-12-27T11:34:37.911Z,45.91
2022-12-27T11:37:15.621Z,45.19
2022-12-27T11:39:53.727Z,44.78
2022-12-27T11:42:33.015Z,44.29
2022-12-27T11:45:06.920Z,44.92
2022-12-27T11:47:45.566Z,45.62
2022-12-27T11:50:27.439Z,44.19
2022-12-27T11:53:02.163Z,43.79
2022-12-27T11:56:06.562Z,42.01
2022-12-27T11:58:51.956Z,39.31
2022-12-27T12:01:44.893Z,39.95
2022-12-27T12:04:29.976Z,38.60
2022-12-27T12:07:24.683Z,38.27
2022-12-27T12:10:01.869Z,38.55
2022-12-27T12:13:06.564Z,38.67
2022-12-27T12:15:55.590Z,39.26
2022-12-27T12:19:00.938Z,40.26
2022-12-27T12:21:53.472Z,41.68
2022-12-27T12:24:32.115Z,41.66
2022-12-27T12:27:11.015Z,42.09
2022-12-27T12:30:15.601Z,42.46
2022-12-27T12:33:02.637Z,43.16
2022-12-27T12:35:43.942Z,43.65
2022-12-27T12:38:13.878Z,44.80
2022-12-27T12:40:40.626Z,44.45
2022-12-27T12:43:29.373Z,44.94
2022-12-27T12:46:14.632Z,44.57
2022-12-27T12:49:09.848Z,45.53
2022-12-27T12:51:55.318Z,47.59
2022-12-27T12:54:48.095Z,47.12
2022-12-27T12:57:59.522Z,47.01
2022-12-27T13:00:36.340Z,46.71
2022-12-27T13:03:21.640Z,46.02
2022-12-27T13:06:13.905Z,45.93
2022-12-27T13:08:51.752Z,43.74
2022-12-27T13:11:38.938Z,40.08
2022-12-27T13:14:18.277Z,37.23
2022-12-27T13:17:10.887Z,38.45
2022-12-27T13:19:37.891Z,40.04
2022-12-27T13:22:26.343Z,41.08
2022-12-27T13:25:24.079Z,43.78
2022-12-27T13:28:15.355Z,44.27
2022-12-27T13:30:54.010Z,44.53
2022-12-27T13:33:57.225Z,45.40
2022-12-27T13:36:57.466Z,47.29
2022-12-27T13:39:34.106Z,46.03
2022-12-27T13:42:19.477Z,47.53
2022-12-27T13:44:49.383Z,47.67
2022-12-27T13:47:53.573Z,47.28
2022-12-27T13:50:41.828Z,47.72
2022-12-27T13:53:45.287Z,48.35
2022-12-27T13:56:54.879Z,48.79
2022-12-27T14:00:03.120Z,48.52
2022-12-27T14:02:35.909Z,48.50
2022-12-27T14:05:03.066Z,48.89
2022-12-27T14:07:53.701Z,48.19
2022-12-27T14:10:32.244Z,48.89
2022-12-27T14:13:02.199Z,48.55
2022-12-27T14:15:50.870Z,48.31
2022-12-27T14:18:45.064Z,48.77
2022-12-27T14:21:17.763Z,49.71
2022-12-27T14:23:44.544Z,49.95
2022-12-27T14:26:48.408Z,49.78
2022-12-27T14:29:48.307Z,49.51
2022-12-27T14:32:33.449Z,49.79
2022-12-27T14:35:00.307Z,50.41
2022-12-27T14:37:48.454Z,51.26
2022-12-27T14:40:46.122Z,50.52
2022-12-27T14:43:27.953Z,51.94
2022-12-27T14:46:13.710Z,52.04
2022-12-27T14:49:18.888Z,51.68
2022-12-27T14:52:11.911Z,51.72
2022-12-27T14:55:10.816Z,50.91
2022-12-27T14:57:56.509Z,51.52
2022-12-27T15:00:25.334Z,52.78
2022-12-27T15:03:04.348Z,53.23
2022-12-27T15:05:49.680Z,53.95
2022-12-27T15:08:47.228Z,53.94
2022-12-27T15:11:33.745Z,53.93
2022-12-27T15:14:19.739Z,54.45
2022-12-27T15:16:54.888Z,55.52
2022-12-27T15:20:07.164Z,54.12
2022-12-27T15:22:39.800Z,54.29
2022-12-27T15:25:38.431Z,54.38
2022-12-27T15:28:25.829Z,54.58
2022-12-27T15:31:07.911Z,54.69
2022-12-27T15:34:02.748Z,55.21
2022-12-27T15:36:50.597Z,54.88
2022-12-27T15:39:32.710Z,55.17
2022-12-27T15:42:48.988Z,54.68
2022-12-27T15:45:40.826Z,55.93
2022-12-27T15:48:39.590Z,54.90
2022-12-27T15:51:14.089Z,55.46
2022-12-27T15:54:08.330Z,55.67
2022-12-27T15:56:59.928Z,55.28
2022-12-27T15:59:45.979Z,55.27
2022-12-27T16:02:31.076Z,55.84
2022-12-27T16:05:03.046Z,55.88
2022-12-27T16:08:00.072Z,55.98
2022-12-27T16:10:33.446Z,55.99
2022-12-27T16:13:02.803Z,55.60
2022-12-27T16:15:45.242Z,55.24
2022-12-27T16:18:24.263Z,55.21
2022-12-27T16:20:58.943Z,55.57
2022-12-27T16:23:36.169Z,55.46
2022-12-27T16:26:19.659Z,54.67
2022-12-27T16:29:04.195Z,54.60
2022-12-27T16:31:33.860Z,53.81
2022-12-27T16:34:20.590Z,53.62
2022-12-27T16:36:49.882Z,53.54
2022-12-27T16:39:52.026Z,52.96
2022-12-27T16:42:30.383Z,53.42
2022-12-27T16:45:05.674Z,52.90
2022-12-27T16:48:29.423Z,53.13
2022-12-27T16:51:15.094Z,52.91
2022-12-27T16:54:04.768Z,53.43
2022-12-27T16:56:44.880Z,52.94
2022-12-27T16:59:49.255Z,52.81
2022-12-27T17:02:39.356Z,52.70
2022-12-27T17:05:34.111Z,52.86
2022-12-27T17:08:01.134Z,52.66
2022-12-27T17:10:27.847Z,53.55
2022-12-27T17:13:02.050Z,53.23
2022-12-27T17:15:30.578Z,53.57
2022-12-27T17:18:07.027Z,54.22
2022-12-27T17:20:34.411Z,53.34
2022-12-27T17:23:04.353Z,53.75
2022-12-27T17:25:44.164Z,53.03
2022-12-27T17:28:26.295Z,53.36
2022-12-27T17:31:14.875Z,53.31
2022-12-27T17:34:23.061Z,56.33
2022-12-27T17:36:56.535Z,53.51
2022-12-27T17:39:23.416Z,52.79
2022-12-27T17:42:29.040Z,53.69
2022-12-27T17:45:21.774Z,53.00
2022-12-27T17:47:57.684Z,53.44
2022-12-27T17:50:26.666Z,53.38
2022-12-27T17:53:28.969Z,53.72
2022-12-27T17:56:29.990Z,53.99
2022-12-27T17:59:13.509Z,53.70
2022-12-27T18:01:45.629Z,53.08
2022-12-27T18:04:22.040Z,52.75
2022-12-27T18:06:49.595Z,52.10
2022-12-27T18:09:37.201Z,51.91
2022-12-27T18:12:10.855Z,50.98
2022-12-27T18:14:37.990Z,50.69
2022-12-27T18:17:05.093Z,50.54
2022-12-27T18:19:32.625Z,49.84
2022-12-27T18:22:02.095Z,49.44
2022-12-27T18:24:32.693Z,50.03
2022-12-27T18:27:01.869Z,49.05
2022-12-27T18:29:28.921Z,49.83
2022-12-27T18:31:58.465Z,49.20
2022-12-27T18:34:28.261Z,49.72
2022-12-27T18:37:23.094Z,49.09
2022-12-27T18:39:54.552Z,48.61
2022-12-27T18:42:36.478Z,49.38
2022-12-27T18:45:20.785Z,49.58
2022-12-27T18:47:50.333Z,49.45
2022-12-27T18:50:20.545Z,51.82
2022-12-27T18:52:51.238Z,50.01
2022-12-27T18:55:27.426Z,48.37
2022-12-27T18:58:20.747Z,48.91
2022-12-27T19:01:03.911Z,47.96
2022-12-27T19:03:36.519Z,47.72
2022-12-27T19:06:07.706Z,48.20
2022-12-27T19:08:44.552Z,47.88
2022-12-27T19:11:31.675Z,48.26
2022-12-27T19:14:01.715Z,48.45
2022-12-27T19:16:31.910Z,47.54
2022-12-27T19:19:10.352Z,47.00
2022-12-27T19:21:39.338Z,46.85
2022-12-27T19:24:23.870Z,46.28
2022-12-27T19:26:51.396Z,46.76
2022-12-27T19:29:27.241Z,46.37
2022-12-27T19:31:59.233Z,46.55
2022-12-27T19:34:28.788Z,48.13
2022-12-27T19:36:55.803Z,48.07
2022-12-27T19:39:41.649Z,47.94
2022-12-27T19:42:14.891Z,48.00
2022-12-27T19:44:41.720Z,48.35
2022-12-27T19:47:14.613Z,48.40
2022-12-27T19:49:43.665Z,48.25
2022-12-27T19:52:29.615Z,48.97
2022-12-27T19:55:08.936Z,48.41
2022-12-27T19:57:35.819Z,48.89
2022-12-27T20:00:08.442Z,49.52
2022-12-27T20:02:39.222Z,49.28
2022-12-27T20:05:06.508Z,49.77
2022-12-27T20:07:33.475Z,49.16
2022-12-27T20:10:00.502Z,50.01
2022-12-27T20:12:27.262Z,50.19
2022-12-27T20:14:54.045Z,50.02
2022-12-27T20:17:20.929Z,49.68
2022-12-27T20:19:47.791Z,49.77
2022-12-27T20:22:14.757Z,50.84
2022-12-27T20:24:41.451Z,50.16
2022-12-27T20:27:08.226Z,51.01
2022-12-27T20:29:35.045Z,50.64
2022-12-27T20:32:02.004Z,49.45
2022-12-27T20:34:28.785Z,49.82
2022-12-27T20:36:55.678Z,49.05
2022-12-27T20:39:22.415Z,48.86
2022-12-27T20:41:49.394Z,49.14
2022-12-27T20:44:16.133Z,49.54
2022-12-27T20:46:43.020Z,49.85
2022-12-27T20:49:09.888Z,50.01
2022-12-27T20:51:37.244Z,50.19
2022-12-27T20:54:04.356Z,49.78
2022-12-27T20:56:31.574Z,50.45
2022-12-27T20:58:58.397Z,50.06
2022-12-27T21:01:26.287Z,50.14
2022-12-27T21:03:56.120Z,50.34
2022-12-27T21:06:26.289Z,51.29
2022-12-27T21:08:57.366Z,51.30
2022-12-27T21:11:28.549Z,51.56
2022-12-27T21:13:55.556Z,51.53
2022-12-27T21:16:25.926Z,52.29
2022-12-27T21:18:53.444Z,52.47
2022-12-27T21:21:23.751Z,53.04
2022-12-27T21:23:52.534Z,52.89
2022-12-27T21:26:23.305Z,54.37
2022-12-27T21:28:50.615Z,53.64
2022-12-27T21:31:18.365Z,52.91
2022-12-27T21:33:45.996Z,52.62
2022-12-27T21:36:15.549Z,53.61
2022-12-27T21:38:43.248Z,53.32
2022-12-27T21:41:13.964Z,53.09
2022-12-27T21:43:41.812Z,54.11
2022-12-27T21:46:12.840Z,54.33
2022-12-27T21:48:40.027Z,55.25
2022-12-27T21:51:18.466Z,55.58
2022-12-27T21:53:46.423Z,55.99
2022-12-27T21:56:14.700Z,56.66
2022-12-27T21:58:43.516Z,57.34
2022-12-27T22:01:21.445Z,55.80
2022-12-27T22:03:50.380Z,55.75
2022-12-27T22:06:20.344Z,56.90
2022-12-27T22:08:50.026Z,57.87
2022-12-27T22:11:18.337Z,58.11
2022-12-27T22:13:45.340Z,57.21
2022-12-27T22:16:15.647Z,57.38
2022-12-27T22:18:43.084Z,57.29
2022-12-27T22:21:12.457Z,56.80
2022-12-27T22:23:42.260Z,57.49
2022-12-27T22:26:14.525Z,58.38
2022-12-27T22:28:41.685Z,58.51
2022-12-27T22:31:11.351Z,58.88
2022-12-27T22:33:38.354Z,58.35
2022-12-27T22:36:07.954Z,58.42
2022-12-27T22:38:34.697Z,58.37
2022-12-27T22:41:15.795Z,58.51
2022-12-27T22:43:48.446Z,59.02
2022-12-27T22:46:15.317Z,59.68
2022-12-27T22:48:42.206Z,59.75
2022-12-27T22:51:17.825Z,58.85
2022-12-27T22:53:44.743Z,59.18
2022-12-27T22:56:17.128Z,58.62
2022-12-27T22:58:44.520Z,57.33
2022-12-27T23:01:16.261Z,58.07
2022-12-27T23:03:43.498Z,58.48
2022-12-27T23:06:12.331Z,59.46
2022-12-27T23:08:40.429Z,59.43
2022-12-27T23:11:11.212Z,59.24
2022-12-27T23:13:38.389Z,58.95
2022-12-27T23:16:05.628Z,59.12
2022-12-27T23:18:32.742Z,59.25
2022-12-27T23:21:20.441Z,59.24
2022-12-27T23:23:46.839Z,59.17
2022-12-27T23:26:16.264Z,58.72
2022-12-27T23:28:45.711Z,58.88
2022-12-27T23:31:13.333Z,59.34
2022-12-27T23:33:41.689Z,59.26
2022-12-27T23:36:09.610Z,59.70
2022-12-27T23:38:36.728Z,59.81
2022-12-27T23:41:06.272Z,59.96
2022-12-27T23:43:52.745Z,59.83
2022-12-27T23:46:24.443Z,59.50
2022-12-27T23:48:51.533Z,59.78
2022-12-27T23:51:18.788Z,59.97
2022-12-27T23:53:45.640Z,59.48
2022-12-27T23:56:24.015Z,59.07
2022-12-27T23:58:53.092Z,59.30
